createdAt,value
2023-02-01T00:02:23.116Z,37.20
2023-02-01T00:04:51.126Z,37.40
2023-02-01T00:07:18.981Z,37.20
2023-02-01T00:09:46.888Z,37.40
2023-02-01T00:12:15.299Z,37.40
2023-02-01T00:14:43.167Z,37.00
2023-02-01T00:17:10.997Z,37.50
2023-02-01T00:19:38.864Z,37.40
2023-02-01T00:22:06.735Z,37.50
2023-02-01T00:24:34.663Z,37.60
2023-02-01T00:27:02.576Z,37.50
2023-02-01T00:29:30.452Z,37.50
2023-02-01T00:31:58.383Z,37.50
2023-02-01T00:34:26.259Z,37.70
2023-02-01T00:36:54.149Z,37.20
2023-02-01T00:39:22.077Z,37.50
2023-02-01T00:41:50.005Z,37.50
2023-02-01T00:44:17.996Z,37.60
2023-02-01T00:46:45.927Z,37.50
2023-02-01T00:49:13.967Z,37.80
2023-02-01T00:51:41.838Z,37.80
2023-02-01T00:54:09.778Z,37.80
2023-02-01T00:56:37.741Z,37.80
2023-02-01T00:59:05.598Z,37.80
2023-02-01T01:01:33.540Z,37.80
2023-02-01T01:04:01.460Z,37.80
2023-02-01T01:06:29.369Z,37.90
2023-02-01T01:08:57.288Z,37.90
2023-02-01T01:11:25.170Z,37.70
2023-02-01T01:13:53.145Z,37.90
2023-02-01T01:16:21.125Z,37.80
2023-02-01T01:18:49.085Z,37.80
2023-02-01T01:21:17.026Z,37.90
2023-02-01T01:23:44.876Z,37.80
2023-02-01T01:26:12.800Z,37.80
2023-02-01T01:28:40.699Z,38.00
2023-02-01T01:31:08.600Z,37.90
2023-02-01T01:33:36.542Z,38.00
2023-02-01T01:36:04.422Z,37.90
2023-02-01T01:38:32.287Z,37.80
2023-02-01T01:41:00.196Z,37.70
2023-02-01T01:43:28.030Z,38.00
2023-02-01T01:45:55.948Z,37.90
2023-02-01T01:48:23.764Z,37.90
2023-02-01T01:50:51.643Z,38.00
2023-02-01T01:53:19.518Z,37.90
2023-02-01T01:55:47.432Z,37.90
2023-02-01T01:58:15.337Z,38.00
2023-02-01T02:00:43.260Z,38.10
2023-02-01T02:03:11.142Z,38.00
2023-02-01T02:05:38.982Z,37.90
2023-02-01T02:08:06.863Z,37.90
2023-02-01T02:11:06.655Z,38.10
2023-02-01T02:13:34.527Z,37.80
2023-02-01T02:16:02.448Z,38.00
2023-02-01T02:18:30.356Z,37.90
2023-02-01T02:20:58.197Z,38.10
2023-02-01T02:23:27.870Z,38.10
2023-02-01T02:25:55.778Z,37.90
2023-02-01T02:28:23.693Z,38.10
2023-02-01T02:30:51.642Z,38.10
2023-02-01T02:33:19.669Z,38.10
2023-02-01T02:35:48.228Z,38.10
2023-02-01T02:38:16.117Z,38.10
2023-02-01T02:40:44.068Z,38.00
2023-02-01T02:43:29.437Z,37.80
2023-02-01T02:46:14.767Z,37.90
2023-02-01T02:48:43.186Z,37.80
2023-02-01T02:51:28.420Z,38.10
2023-02-01T02:54:10.059Z,38.00
2023-02-01T02:56:55.248Z,37.90
2023-02-01T02:59:40.690Z,37.90
2023-02-01T03:02:26.225Z,38.10
2023-02-01T03:04:57.327Z,38.00
2023-02-01T03:07:25.313Z,38.20
2023-02-01T03:09:53.238Z,38.20
2023-02-01T03:12:38.412Z,38.30
2023-02-01T03:15:06.761Z,38.00
2023-02-01T03:17:34.643Z,38.30
2023-02-01T03:20:02.596Z,38.30
2023-02-01T03:22:32.757Z,38.30
2023-02-01T03:25:00.755Z,38.20
2023-02-01T03:27:28.751Z,38.30
2023-02-01T03:29:56.681Z,38.10
2023-02-01T03:32:24.578Z,38.20
2023-02-01T03:34:52.542Z,38.20
2023-02-01T03:37:20.409Z,38.10
2023-02-01T03:39:48.285Z,38.20
2023-02-01T03:42:16.192Z,38.20
2023-02-01T03:44:44.023Z,38.20
2023-02-01T03:47:11.973Z,38.30
2023-02-01T03:49:39.861Z,38.20
2023-02-01T03:52:08.410Z,38.30
2023-02-01T03:54:36.319Z,38.20
2023-02-01T03:57:04.256Z,38.20
2023-02-01T03:59:32.151Z,38.10
2023-02-01T04:02:00.173Z,38.00
2023-02-01T04:04:27.994Z,38.10
2023-02-01T04:06:55.819Z,38.10
2023-02-01T04:09:23.601Z,38.30
2023-02-01T04:11:51.346Z,38.20
2023-02-01T04:14:19.183Z,38.10
2023-02-01T04:16:46.991Z,38.30
2023-02-01T04:19:14.755Z,38.20
2023-02-01T04:21:42.529Z,38.70
2023-02-01T04:24:11.600Z,38.10
2023-02-01T04:26:39.478Z,38.20
2023-02-01T04:29:07.287Z,38.10
2023-02-01T04:31:36.787Z,38.30
2023-02-01T04:34:04.657Z,38.10
2023-02-01T04:36:32.466Z,38.20
2023-02-01T04:39:00.217Z,38.30
2023-02-01T04:41:28.042Z,38.20
2023-02-01T04:43:55.870Z,38.20
2023-02-01T04:46:23.781Z,38.30
2023-02-01T04:48:51.972Z,38.20
2023-02-01T04:51:19.845Z,38.10
2023-02-01T04:53:47.627Z,38.10
2023-02-01T04:56:15.446Z,38.20
2023-02-01T04:58:43.216Z,38.10
2023-02-01T05:01:11.045Z,38.20
2023-02-01T05:03:38.853Z,38.10
2023-02-01T05:06:07.001Z,38.10
2023-02-01T05:08:34.833Z,38.30
2023-02-01T05:11:04.715Z,38.30
2023-02-01T05:13:54.810Z,38.20
2023-02-01T05:16:22.653Z,38.00
2023-02-01T05:18:50.458Z,38.30
2023-02-01T05:21:18.450Z,38.40
2023-02-01T05:24:03.531Z,38.30
2023-02-01T05:26:31.408Z,38.20
2023-02-01T05:28:59.817Z,38.20
2023-02-01T05:31:27.680Z,38.30
2023-02-01T05:37:01.609Z,38.20
2023-02-01T05:39:29.502Z,38.20
2023-02-01T05:41:57.230Z,38.20
2023-02-01T05:44:25.073Z,38.40
2023-02-01T05:46:53.417Z,38.20
2023-02-01T05:52:02.963Z,38.30
2023-02-01T05:54:30.856Z,38.10
2023-02-01T05:56:58.692Z,38.40
2023-02-01T05:59:26.529Z,38.30
2023-02-01T06:01:54.472Z,38.30
2023-02-01T06:04:22.359Z,38.30
2023-02-01T06:06:51.755Z,38.50
2023-02-01T06:09:19.651Z,38.10
2023-02-01T06:11:47.561Z,38.30
2023-02-01T06:14:15.507Z,38.20
2023-02-01T06:16:43.398Z,38.30
2023-02-01T06:19:11.577Z,38.40
2023-02-01T06:21:39.505Z,38.40
2023-02-01T06:24:07.302Z,38.20
2023-02-01T06:26:35.295Z,38.40
2023-02-01T06:29:03.119Z,38.30
2023-02-01T06:31:33.172Z,38.40
2023-02-01T06:34:01.207Z,38.20
2023-02-01T06:36:29.103Z,38.40
2023-02-01T06:38:57.660Z,38.40
2023-02-01T06:41:29.234Z,38.30
2023-02-01T06:43:57.359Z,38.50
2023-02-01T06:46:25.461Z,38.50
2023-02-01T06:48:53.415Z,38.50
2023-02-01T06:51:21.344Z,38.60
2023-02-01T06:53:49.248Z,38.50
2023-02-01T06:56:17.173Z,38.40
2023-02-01T06:58:45.027Z,38.50
2023-02-01T07:01:13.132Z,38.40
2023-02-01T07:03:41.044Z,38.40
2023-02-01T07:06:09.212Z,38.30
2023-02-01T07:08:37.062Z,38.40
2023-02-01T07:11:04.950Z,38.20
2023-02-01T07:13:32.928Z,38.40
2023-02-01T07:16:00.917Z,38.10
2023-02-01T07:18:28.883Z,38.30
2023-02-01T07:20:56.853Z,38.50
2023-02-01T07:23:24.786Z,38.10
2023-02-01T07:25:52.693Z,38.50
2023-02-01T07:28:20.774Z,38.40
2023-02-01T07:30:52.111Z,38.40
2023-02-01T07:33:20.069Z,38.10
2023-02-01T07:35:47.970Z,38.20
2023-02-01T07:38:15.891Z,38.30
2023-02-01T07:40:43.739Z,38.40
2023-02-01T07:43:11.705Z,38.40
2023-02-01T07:45:39.674Z,38.30
2023-02-01T07:48:08.500Z,38.30
2023-02-01T07:50:36.403Z,38.30
2023-02-01T07:53:04.359Z,38.40
2023-02-01T07:55:32.330Z,38.50
2023-02-01T07:58:00.512Z,38.20
2023-02-01T08:00:45.967Z,38.20
2023-02-01T08:03:15.106Z,38.20
2023-02-01T08:05:44.155Z,38.30
2023-02-01T08:08:12.039Z,38.30
2023-02-01T08:10:39.969Z,38.30
2023-02-01T08:13:08.373Z,38.30
2023-02-01T08:15:36.249Z,38.30
2023-02-01T08:18:04.510Z,38.30
2023-02-01T08:20:32.464Z,38.20
2023-02-01T08:23:00.403Z,38.10
2023-02-01T08:25:28.691Z,38.50
2023-02-01T08:27:56.608Z,38.30
2023-02-01T08:30:24.799Z,38.30
2023-02-01T08:32:52.816Z,38.30
2023-02-01T08:35:22.288Z,38.30
2023-02-01T08:37:51.635Z,38.20
2023-02-01T08:40:20.340Z,38.30
2023-02-01T08:42:54.874Z,38.30
2023-02-01T08:45:22.766Z,38.20
2023-02-01T08:47:50.635Z,38.40
2023-02-01T08:50:18.571Z,38.20
2023-02-01T08:52:46.465Z,38.70
2023-02-01T08:55:14.427Z,38.30
2023-02-01T08:57:42.346Z,38.30
2023-02-01T09:00:10.935Z,38.50
2023-02-01T09:02:38.839Z,38.30
2023-02-01T09:05:07.136Z,38.40
2023-02-01T09:07:35.172Z,38.60
2023-02-01T09:10:03.017Z,38.60
2023-02-01T09:12:30.933Z,38.50
2023-02-01T09:15:00.505Z,38.50
2023-02-01T09:19:57.371Z,39.30
2023-02-01T09:22:25.374Z,38.70
2023-02-01T09:24:54.254Z,38.80
2023-02-01T09:27:23.041Z,38.60
2023-02-01T09:29:53.906Z,38.60
2023-02-01T09:32:21.903Z,38.40
2023-02-01T09:34:49.808Z,38.60
2023-02-01T09:37:17.737Z,38.60
2023-02-01T09:39:45.681Z,38.80
2023-02-01T09:42:13.544Z,38.60
2023-02-01T09:44:44.257Z,38.50
2023-02-01T09:47:12.559Z,38.50
2023-02-01T09:49:43.718Z,38.50
2023-02-01T09:52:11.648Z,39.00
2023-02-01T09:54:39.537Z,38.50
2023-02-01T09:57:07.455Z,38.50
2023-02-01T09:59:35.354Z,38.40
2023-02-01T10:02:03.361Z,38.60
2023-02-01T10:04:31.290Z,38.40
2023-02-01T10:06:59.212Z,38.50
2023-02-01T10:09:31.875Z,38.60
2023-02-01T10:11:59.734Z,38.50
2023-02-01T10:14:27.670Z,38.30
2023-02-01T10:16:55.874Z,38.60
2023-02-01T10:19:23.843Z,38.60
2023-02-01T10:21:51.689Z,38.50
2023-02-01T10:24:19.622Z,38.50
2023-02-01T10:26:47.630Z,38.60
2023-02-01T10:29:15.524Z,38.50
2023-02-01T10:31:43.577Z,38.50
2023-02-01T10:34:13.821Z,38.40
2023-02-01T10:36:41.688Z,38.40
2023-02-01T10:39:10.931Z,38.50
2023-02-01T10:41:40.218Z,38.40
2023-02-01T10:44:08.199Z,38.30
2023-02-01T10:46:36.166Z,38.30
2023-02-01T10:49:04.086Z,38.50
2023-02-01T10:51:32.133Z,38.50
2023-02-01T10:54:00.098Z,38.50
2023-02-01T10:56:28.058Z,38.60
2023-02-01T10:58:58.949Z,38.70
2023-02-01T11:01:26.927Z,38.50
2023-02-01T11:03:54.878Z,38.50
2023-02-01T11:06:22.793Z,38.60
2023-02-01T11:08:50.695Z,38.60
2023-02-01T11:11:19.499Z,38.40
2023-02-01T11:13:48.290Z,38.60
2023-02-01T11:16:16.797Z,38.70
2023-02-01T11:18:44.760Z,38.70
2023-02-01T11:21:12.623Z,38.60
2023-02-01T11:23:40.522Z,39.40
2023-02-01T11:26:08.471Z,38.70
2023-02-01T11:28:36.395Z,38.70
2023-02-01T11:31:04.586Z,38.80
2023-02-01T11:33:35.111Z,38.80
2023-02-01T11:36:03.155Z,38.70
2023-02-01T11:38:31.378Z,38.70
2023-02-01T11:40:59.351Z,38.50
2023-02-01T11:43:27.262Z,38.70
2023-02-01T11:45:55.252Z,38.30
2023-02-01T11:48:26.786Z,38.60
2023-02-01T11:50:55.306Z,38.60
2023-02-01T11:53:23.220Z,38.70
2023-02-01T11:55:51.125Z,39.30
2023-02-01T11:58:19.055Z,38.70
2023-02-01T12:00:46.975Z,38.90
2023-02-01T12:03:14.927Z,38.80
2023-02-01T12:05:42.880Z,38.60
2023-02-01T12:08:10.738Z,38.60
2023-02-01T12:10:38.651Z,38.60
2023-02-01T12:13:07.481Z,38.50
2023-02-01T12:15:35.324Z,38.60
2023-02-01T12:18:03.368Z,38.60
2023-02-01T12:20:33.645Z,38.60
2023-02-01T12:23:01.511Z,38.60
2023-02-01T12:25:29.474Z,38.70
2023-02-01T12:27:57.534Z,38.70
2023-02-01T12:30:25.980Z,38.70
2023-02-01T12:32:53.970Z,38.70
2023-02-01T12:35:21.803Z,38.70
2023-02-01T12:37:55.802Z,38.70
2023-02-01T12:40:23.982Z,38.70
2023-02-01T12:42:52.040Z,38.80
2023-02-01T12:45:19.987Z,39.50
2023-02-01T12:47:47.920Z,38.90
2023-02-01T12:50:16.266Z,38.90
2023-02-01T12:52:44.126Z,38.80
2023-02-01T12:55:12.001Z,38.80
2023-02-01T12:57:39.941Z,38.80
2023-02-01T13:00:07.963Z,38.80
2023-02-01T13:02:37.512Z,38.90
2023-02-01T13:05:05.397Z,38.90
2023-02-01T13:07:33.215Z,38.90
2023-02-01T13:10:01.298Z,38.90
2023-02-01T13:12:29.132Z,38.90
2023-02-01T13:14:57.045Z,38.90
2023-02-01T13:17:25.745Z,39.00
2023-02-01T13:19:53.645Z,38.90
2023-02-01T13:22:21.517Z,38.90
2023-02-01T13:24:49.456Z,38.90
2023-02-01T13:27:17.341Z,38.90
2023-02-01T13:29:45.393Z,38.90
2023-02-01T13:32:18.505Z,38.90
2023-02-01T13:34:46.581Z,39.00
2023-02-01T13:37:14.738Z,38.80
2023-02-01T13:39:43.407Z,38.90
2023-02-01T13:42:11.258Z,38.90
2023-02-01T13:44:39.069Z,38.90
2023-02-01T13:47:07.035Z,38.90
2023-02-01T13:49:34.907Z,38.90
2023-02-01T13:52:02.783Z,38.90
2023-02-01T13:54:30.645Z,38.90
2023-02-01T13:57:00.135Z,39.00
2023-02-01T13:59:27.973Z,39.00
2023-02-01T14:01:55.848Z,38.90
2023-02-01T14:04:23.726Z,39.00
2023-02-01T14:06:51.606Z,39.00
2023-02-01T14:09:20.172Z,39.00
2023-02-01T14:11:48.138Z,39.00
2023-02-01T14:14:15.977Z,39.10
2023-02-01T14:16:43.923Z,39.00
2023-02-01T14:19:11.920Z,38.70
2023-02-01T14:21:39.846Z,38.80
2023-02-01T14:24:07.778Z,38.70
2023-02-01T14:26:35.861Z,38.80
2023-02-01T14:29:03.892Z,38.70
2023-02-01T14:31:32.492Z,38.70
2023-02-01T14:34:00.472Z,38.60
2023-02-01T14:36:30.902Z,38.60
2023-02-01T14:38:58.789Z,38.70
2023-02-01T14:41:26.852Z,38.70
2023-02-01T14:43:54.773Z,38.70
2023-02-01T14:46:22.712Z,38.70
2023-02-01T14:48:50.576Z,39.20
2023-02-01T14:51:18.469Z,32.60
2023-02-01T14:53:47.792Z,25.80
2023-02-01T14:56:15.711Z,21.80
2023-02-01T14:58:43.644Z,19.50
2023-02-01T15:01:11.616Z,17.90
2023-02-01T15:03:39.473Z,16.80
2023-02-01T15:06:08.057Z,16.10
2023-02-01T15:08:35.952Z,15.60
2023-02-01T15:11:03.884Z,15.20
2023-02-01T15:13:31.774Z,14.90
2023-02-01T15:15:59.689Z,14.60
2023-02-01T15:18:27.574Z,14.30
2023-02-01T15:21:09.647Z,14.10
2023-02-01T15:23:43.637Z,14.00
2023-02-01T15:26:11.890Z,13.90
2023-02-01T15:28:39.751Z,13.90
2023-02-01T15:31:07.739Z,13.80
2023-02-01T15:33:35.663Z,13.80
2023-02-01T15:36:03.630Z,14.00
2023-02-01T15:38:31.805Z,14.30
2023-02-01T15:40:59.717Z,14.80
2023-02-01T15:43:27.884Z,15.40
2023-02-01T15:45:56.596Z,15.90
2023-02-01T15:48:24.506Z,16.60
2023-02-01T15:50:52.467Z,17.20
2023-02-01T15:53:20.336Z,17.80
2023-02-01T15:55:48.866Z,18.30
2023-02-01T15:58:16.731Z,19.00
2023-02-01T16:00:44.593Z,19.70
2023-02-01T16:03:12.486Z,20.10
2023-02-01T16:05:40.967Z,20.80
2023-02-01T16:08:09.271Z,21.50
2023-02-01T16:10:37.219Z,22.00
2023-02-01T16:13:05.127Z,22.20
2023-02-01T16:15:32.973Z,21.10
2023-02-01T16:18:00.863Z,19.60
2023-02-01T16:20:28.900Z,18.50
2023-02-01T16:22:56.732Z,17.70
2023-02-01T16:25:24.931Z,17.10
2023-02-01T16:27:53.037Z,16.40
2023-02-01T16:30:24.155Z,15.80
2023-02-01T16:32:52.127Z,15.20
2023-02-01T16:35:20.786Z,14.70
2023-02-01T16:37:48.798Z,14.30
2023-02-01T16:40:16.704Z,14.00
2023-02-01T16:42:44.609Z,13.80
2023-02-01T16:45:12.471Z,13.60
2023-02-01T16:47:41.740Z,13.50
2023-02-01T16:50:21.597Z,13.40
2023-02-01T16:52:50.872Z,13.50
2023-02-01T16:55:18.742Z,13.70
2023-02-01T16:57:46.608Z,14.10
2023-02-01T17:00:23.910Z,14.60
2023-02-01T17:02:52.672Z,15.20
2023-02-01T17:05:20.613Z,15.90
2023-02-01T17:07:48.535Z,16.60
2023-02-01T17:10:18.931Z,17.30
2023-02-01T17:12:49.326Z,18.00
2023-02-01T17:15:17.197Z,18.70
2023-02-01T17:17:45.887Z,19.50
2023-02-01T17:20:13.738Z,20.20
2023-02-01T17:22:41.648Z,20.90
2023-02-01T17:25:09.596Z,21.50
2023-02-01T17:27:38.846Z,22.20
2023-02-01T17:30:07.088Z,22.70
2023-02-01T17:32:35.095Z,23.30
2023-02-01T17:35:03.023Z,23.90
2023-02-01T17:37:30.876Z,24.30
2023-02-01T17:39:58.846Z,24.80
2023-02-01T17:42:26.688Z,25.30
2023-02-01T17:44:55.634Z,25.80
2023-02-01T17:47:23.848Z,26.20
2023-02-01T17:49:56.669Z,26.80
2023-02-01T17:52:24.958Z,27.30
2023-02-01T17:54:54.282Z,27.80
2023-02-01T17:57:22.390Z,28.80
2023-02-01T17:59:50.291Z,28.90
2023-02-01T18:02:18.364Z,28.00
2023-02-01T18:04:46.288Z,24.90
2023-02-01T18:07:14.188Z,20.90
2023-02-01T18:09:42.572Z,18.40
2023-02-01T18:12:10.429Z,17.20
2023-02-01T18:14:38.385Z,16.40
2023-02-01T18:17:06.488Z,15.60
2023-02-01T18:19:35.128Z,14.80
2023-02-01T18:22:03.268Z,14.20
2023-02-01T18:24:33.659Z,13.80
2023-02-01T18:27:02.111Z,13.40
2023-02-01T18:29:30.078Z,13.30
2023-02-01T18:31:58.007Z,13.20
2023-02-01T18:34:27.379Z,13.50
2023-02-01T18:36:55.318Z,13.90
2023-02-01T18:39:23.613Z,14.40
2023-02-01T18:41:52.362Z,15.00
2023-02-01T18:44:20.265Z,15.70
2023-02-01T18:46:48.212Z,16.40
2023-02-01T18:49:18.223Z,17.10
2023-02-01T18:51:46.852Z,17.70
2023-02-01T18:54:14.718Z,18.40
2023-02-01T18:56:43.338Z,19.10
2023-02-01T18:59:11.905Z,19.90
2023-02-01T19:01:40.014Z,20.50
2023-02-01T19:04:09.181Z,21.20
2023-02-01T19:06:43.068Z,21.80
2023-02-01T19:09:11.061Z,22.50
2023-02-01T19:11:39.145Z,23.10
2023-02-01T19:14:07.203Z,23.60
2023-02-01T19:16:39.863Z,24.60
2023-02-01T19:19:07.882Z,24.60
2023-02-01T19:21:35.822Z,25.10
2023-02-01T19:24:03.945Z,25.60
2023-02-01T19:26:31.897Z,26.00
2023-02-01T19:28:59.883Z,26.50
2023-02-01T19:31:27.854Z,26.90
2023-02-01T19:33:56.006Z,27.40
2023-02-01T19:36:23.956Z,27.90
2023-02-01T19:38:52.159Z,28.50
2023-02-01T19:41:20.039Z,28.90
2023-02-01T19:43:48.064Z,29.40
2023-02-01T19:46:16.017Z,29.80
2023-02-01T19:48:43.858Z,30.20
2023-02-01T19:51:12.925Z,30.60
2023-02-01T19:53:40.967Z,31.20
2023-02-01T19:56:09.275Z,31.60
2023-02-01T19:58:37.156Z,32.00
2023-02-01T20:01:06.283Z,32.30
2023-02-01T20:03:34.185Z,32.50
2023-02-01T20:06:02.081Z,32.80
2023-02-01T20:08:29.896Z,33.00
2023-02-01T20:10:58.244Z,33.20
2023-02-01T20:13:26.667Z,33.30
2023-02-01T20:15:54.596Z,33.50
2023-02-01T20:18:22.458Z,33.60
2023-02-01T20:20:50.428Z,33.80
2023-02-01T20:23:19.296Z,34.00
2023-02-01T20:25:48.320Z,34.20
2023-02-01T20:28:16.203Z,34.30
2023-02-01T20:30:44.412Z,34.40
2023-02-01T20:33:12.317Z,34.60
2023-02-01T20:35:40.212Z,34.70
2023-02-01T20:38:08.640Z,34.90
2023-02-01T20:40:36.526Z,35.00
2023-02-01T20:43:04.424Z,35.20
2023-02-01T20:45:32.375Z,35.20
2023-02-01T20:48:00.268Z,35.40
2023-02-01T20:50:28.246Z,35.40
2023-02-01T20:52:56.207Z,35.50
2023-02-01T20:55:25.373Z,35.70
2023-02-01T20:57:53.707Z,35.70
2023-02-01T21:00:22.673Z,35.80
2023-02-01T21:02:50.519Z,35.80
2023-02-01T21:05:18.345Z,35.90
2023-02-01T21:07:46.220Z,36.00
2023-02-01T21:10:14.150Z,36.00
2023-02-01T21:12:42.080Z,36.10
2023-02-01T21:15:09.946Z,36.10
2023-02-01T21:17:39.437Z,36.10
2023-02-01T21:20:08.593Z,36.10
2023-02-01T21:22:36.429Z,36.20
2023-02-01T21:25:04.403Z,36.20
2023-02-01T21:27:32.314Z,36.40
2023-02-01T21:30:00.259Z,36.40
2023-02-01T21:32:28.123Z,36.40
2023-02-01T21:34:55.956Z,36.40
2023-02-01T21:37:25.771Z,36.50
2023-02-01T21:39:53.647Z,36.60
2023-02-01T21:42:23.958Z,36.60
2023-02-01T21:44:51.867Z,36.60
2023-02-01T21:47:21.323Z,36.70
2023-02-01T21:49:53.928Z,36.60
2023-02-01T21:52:22.100Z,36.70
2023-02-01T21:54:52.139Z,36.70
2023-02-01T21:57:20.074Z,36.70
2023-02-01T21:59:48.430Z,36.70
2023-02-01T22:02:17.031Z,36.90
2023-02-01T22:04:45.168Z,36.80
2023-02-01T22:07:13.386Z,36.80
2023-02-01T22:09:41.248Z,36.90
2023-02-01T22:12:09.329Z,37.00
2023-02-01T22:14:37.162Z,36.90
2023-02-01T22:17:05.291Z,36.90
2023-02-01T22:19:33.185Z,37.10
2023-02-01T22:22:01.053Z,37.00
2023-02-01T22:24:28.921Z,37.10
2023-02-01T22:26:56.755Z,37.00
2023-02-01T22:29:42.363Z,37.00
2023-02-01T22:32:10.322Z,37.10
2023-02-01T22:34:39.182Z,37.20
2023-02-01T22:37:07.245Z,37.20
2023-02-01T22:39:35.103Z,37.20
2023-02-01T22:42:03.636Z,37.20
2023-02-01T22:44:31.571Z,37.30
2023-02-01T22:46:59.541Z,37.40
2023-02-01T22:49:27.448Z,37.40
2023-02-01T22:51:55.320Z,37.40
2023-02-01T22:54:23.203Z,37.40
2023-02-01T22:56:51.182Z,37.40
2023-02-01T22:59:19.060Z,37.50
2023-02-01T23:01:46.954Z,37.40
2023-02-01T23:04:14.868Z,37.50
2023-02-01T23:06:42.923Z,37.60
2023-02-01T23:09:12.343Z,37.60
2023-02-01T23:11:40.237Z,37.60
2023-02-01T23:14:08.077Z,37.60
2023-02-01T23:16:36.264Z,37.60
2023-02-01T23:19:04.149Z,37.60
2023-02-01T23:21:32.062Z,37.60
2023-02-01T23:23:59.919Z,37.60
2023-02-01T23:26:27.848Z,37.60
2023-02-01T23:28:55.899Z,37.60
2023-02-01T23:31:23.963Z,37.70
2023-02-01T23:33:54.984Z,37.70
2023-02-01T23:36:22.879Z,37.70
2023-02-01T23:38:50.843Z,37.60
2023-02-01T23:41:18.907Z,37.70
2023-02-01T23:43:58.907Z,37.80
2023-02-01T23:46:26.781Z,37.80
2023-02-01T23:48:54.892Z,37.80
2023-02-01T23:51:22.760Z,37.70
2023-02-01T23:53:50.623Z,37.80
2023-02-01T23:56:18.484Z,37.80
2023-02-01T23:58:46.336Z,37.80
